Time;durP1;ratioP1;P1;durP2;ratioP2;P2;SDS_P1;SDS_P2;PMS_P1;PMS_P2;Temp;Humidity;BMP_temperature;BMP_pressure;BME280_temperature;BME280_humidity;BME280_pressure;Samples;Min_cycle;Max_cycle;Signal;HPM_P1;HPM_P2
2021/12/16 00:03:03;;;;;;;11.40;9.10;;;1.60;91.20;;;;;;6264875;28;20182;-61
2021/12/16 00:09:27;;;;;;;16.33;14.43;;;1.60;91.30;;;;;;6199712;28;20292;-61
2021/12/16 00:33:18;;;;;;;14.27;10.27;;;1.20;90.90;;;;;;6190431;28;20292;-62
2021/12/16 00:36:13;;;;;;;13.23;10.23;;;1.20;91.10;;;;;;6174250;28;20213;-62
2021/12/16 00:39:22;;;;;;;12.20;8.87;;;1.20;91.60;;;;;;6207006;28;20205;-61
2021/12/16 00:55:52;;;;;;;11.57;8.63;;;1.10;91.70;;;;;;6228986;28;20183;-61
2021/12/16 00:58:57;;;;;;;11.77;8.10;;;1.10;91.50;;;;;;6219526;28;20242;-61
2021/12/16 01:09:58;;;;;;;11.27;8.23;;;0.90;91.90;;;;;;6203131;28;20227;-61
2021/12/16 01:55:36;;;;;;;10.80;6.97;;;1.00;91.80;;;;;;6215087;28;20198;-62
2021/12/16 01:58:34;;;;;;;8.30;6.20;;;1.00;91.70;;;;;;6213183;28;20230;-62
2021/12/16 02:01:38;;;;;;;8.97;6.53;;;1.10;91.90;;;;;;6200577;28;20207;-62
2021/12/16 02:05:05;;;;;;;9.03;6.80;;;1.10;91.60;;;;;;6209796;28;20237;-62
2021/12/16 02:37:23;;;;;;;7.67;6.10;;;1.30;91.40;;;;;;6185675;28;20206;-62
2021/12/16 02:40:27;;;;;;;7.43;6.00;;;1.30;91.20;;;;;;6214189;28;20200;-62
2021/12/16 02:49:51;;;;;;;8.33;6.40;;;1.20;91.60;;;;;;6252349;28;20210;-62
2021/12/16 02:52:53;;;;;;;7.67;5.80;;;1.10;91.30;;;;;;6228591;28;20202;-62
2021/12/16 02:55:54;;;;;;;7.73;6.40;;;1.10;91.50;;;;;;6241888;28;20277;-62
2021/12/16 02:58:57;;;;;;;7.57;6.10;;;1.10;91.30;;;;;;6224501;28;20262;-62
2021/12/16 03:02:06;;;;;;;7.50;5.60;;;1.10;91.40;;;;;;6241878;28;20182;-63
2021/12/16 03:05:09;;;;;;;7.07;5.83;;;1.00;91.20;;;;;;6225930;28;20190;-63
2021/12/16 03:08:10;;;;;;;10.63;6.67;;;0.90;91.80;;;;;;6232328;28;20222;-63
2021/12/16 03:11:21;;;;;;;7.93;5.83;;;0.90;91.70;;;;;;6216298;28;20197;-63
2021/12/16 03:18:08;;;;;;;11.70;8.00;;;0.80;91.30;;;;;;6177346;28;20290;-63
2021/12/16 03:21:23;;;;;;;10.53;8.10;;;0.90;91.60;;;;;;6240907;28;20190;-63
2021/12/16 03:31:42;;;;;;;8.60;6.43;;;0.80;91.50;;;;;;6239677;28;20183;-62
2021/12/16 03:37:31;;;;;;;7.33;5.40;;;0.80;92.00;;;;;;6213883;28;20184;-62
2021/12/16 03:40:36;;;;;;;7.80;6.00;;;0.80;92.20;;;;;;6216226;28;20330;-62
2021/12/16 03:43:38;;;;;;;8.67;5.87;;;0.80;92.10;;;;;;6199850;28;20195;-62
2021/12/16 03:46:49;;;;;;;7.87;5.70;;;0.80;91.70;;;;;;6200438;28;20200;-62
2021/12/16 03:49:52;;;;;;;10.23;6.63;;;0.80;92.10;;;;;;6184048;28;20287;-62
2021/12/16 03:52:53;;;;;;;8.93;6.40;;;0.70;91.80;;;;;;6206651;28;20281;-62
2021/12/16 03:55:55;;;;;;;7.43;6.10;;;0.60;91.80;;;;;;6223836;28;20214;-62
2021/12/16 03:58:58;;;;;;;8.67;6.10;;;0.60;91.30;;;;;;6232138;28;20227;-62
2021/12/16 04:02:15;;;;;;;6.57;5.43;;;0.50;91.60;;;;;;6186165;28;20244;-62
2021/12/16 04:05:19;;;;;;;5.63;4.83;;;0.50;91.40;;;;;;6194302;28;20532;-62
2021/12/16 04:08:21;;;;;;;7.47;5.67;;;0.60;91.40;;;;;;6207253;28;20218;-62
2021/12/16 04:11:39;;;;;;;6.70;5.73;;;0.50;91.70;;;;;;6213398;28;20187;-62
2021/12/16 04:14:46;;;;;;;8.80;6.57;;;0.50;91.70;;;;;;6208588;28;20227;-62
2021/12/16 04:17:47;;;;;;;7.87;6.10;;;0.40;91.70;;;;;;6223654;28;20203;-62
2021/12/16 04:20:49;;;;;;;12.40;6.33;;;0.40;91.80;;;;;;6223904;28;20206;-62
2021/12/16 04:23:49;;;;;;;9.33;6.43;;;0.40;92.00;;;;;;6228223;28;20201;-62
2021/12/16 04:26:53;;;;;;;7.77;6.30;;;0.30;91.60;;;;;;6205000;28;20200;-62
2021/12/16 04:29:55;;;;;;;9.40;6.73;;;0.40;92.20;;;;;;6211096;28;20187;-62
2021/12/16 04:32:56;;;;;;;8.17;6.30;;;0.40;92.20;;;;;;6211898;28;20183;-62
2021/12/16 04:36:02;;;;;;;11.43;6.63;;;0.50;92.10;;;;;;6224479;28;20187;-62
2021/12/16 04:39:10;;;;;;;9.30;6.50;;;0.40;92.00;;;;;;6223439;28;20187;-63
2021/12/16 04:42:13;;;;;;;11.17;6.43;;;0.40;92.00;;;;;;6248204;28;20186;-63
2021/12/16 04:45:19;;;;;;;8.03;5.90;;;0.40;91.80;;;;;;6226640;28;20207;-63
2021/12/16 04:48:22;;;;;;;9.07;6.83;;;0.40;91.90;;;;;;6227720;28;20253;-63
2021/12/16 04:51:27;;;;;;;7.53;5.57;;;0.40;91.60;;;;;;6220299;28;20229;-63
2021/12/16 04:54:29;;;;;;;8.17;5.87;;;0.40;91.60;;;;;;6212160;28;20595;-63
2021/12/16 04:57:31;;;;;;;8.93;6.33;;;0.30;91.80;;;;;;6249816;28;20307;-63
2021/12/16 05:00:32;;;;;;;7.70;5.80;;;0.30;92.00;;;;;;6220065;28;20191;-63
2021/12/16 05:04:02;;;;;;;7.97;6.20;;;0.40;91.70;;;;;;6213626;28;20217;-63
2021/12/16 05:07:06;;;;;;;8.20;5.40;;;0.40;91.80;;;;;;6211256;28;20195;-63
2021/12/16 05:10:12;;;;;;;7.80;5.60;;;0.40;91.40;;;;;;6227734;28;20285;-63
2021/12/16 05:13:18;;;;;;;6.97;5.20;;;0.40;91.80;;;;;;6231239;28;20195;-63
2021/12/16 05:16:19;;;;;;;9.53;5.53;;;0.40;91.60;;;;;;6186960;28;20192;-63
2021/12/16 05:19:23;;;;;;;10.80;6.60;;;0.40;91.60;;;;;;6170869;28;20195;-63
2021/12/16 05:28:55;;;;;;;8.50;5.40;;;0.40;92.00;;;;;;6205706;28;20261;-63
2021/12/16 05:31:57;;;;;;;7.47;5.20;;;0.30;91.90;;;;;;6242943;28;20190;-64
2021/12/16 05:34:58;;;;;;;6.67;5.50;;;0.30;92.00;;;;;;6210577;28;20194;-63
2021/12/16 05:37:59;;;;;;;8.33;5.20;;;0.30;92.20;;;;;;6188862;28;20202;-63
2021/12/16 05:41:03;;;;;;;11.07;7.17;;;0.30;91.90;;;;;;6222134;28;20190;-64
2021/12/16 05:44:09;;;;;;;9.60;5.87;;;0.40;92.00;;;;;;6180336;28;20222;-63
2021/12/16 05:47:11;;;;;;;6.70;5.10;;;0.40;92.10;;;;;;6227405;28;20218;-64
2021/12/16 05:50:13;;;;;;;11.00;6.07;;;0.30;91.50;;;;;;6216780;28;20297;-63
2021/12/16 05:53:14;;;;;;;11.27;6.70;;;0.20;91.00;;;;;;6203108;28;20192;-63
2021/12/16 05:56:15;;;;;;;6.47;5.47;;;0.30;91.60;;;;;;6202549;28;20199;-63
2021/12/16 05:59:18;;;;;;;7.57;5.50;;;0.30;92.00;;;;;;6186352;28;20238;-63
2021/12/16 06:02:20;;;;;;;8.97;6.07;;;0.30;92.00;;;;;;6237255;28;20193;-63
2021/12/16 06:05:21;;;;;;;8.10;6.30;;;0.40;92.30;;;;;;6221665;28;20338;-63
2021/12/16 06:08:22;;;;;;;10.47;6.63;;;0.30;91.60;;;;;;6216355;28;20919;-63
2021/12/16 06:11:29;;;;;;;8.83;6.23;;;0.30;91.70;;;;;;6222609;28;20201;-63
2021/12/16 06:27:51;;;;;;;7.80;5.30;;;0.30;92.00;;;;;;6136817;28;20224;-63
2021/12/16 06:30:52;;;;;;;8.73;6.33;;;0.30;91.60;;;;;;6244810;28;20285;-63
2021/12/16 06:33:53;;;;;;;8.17;5.77;;;0.30;91.60;;;;;;6240551;28;20241;-64
2021/12/16 06:36:55;;;;;;;6.60;5.67;;;0.10;91.00;;;;;;6192779;28;20221;-62
2021/12/16 06:39:56;;;;;;;9.63;6.80;;;0.10;91.20;;;;;;6227357;28;20189;-63
2021/12/16 06:43:08;;;;;;;9.20;6.73;;;0.10;91.00;;;;;;6209404;28;20202;-63
2021/12/16 06:46:14;;;;;;;8.07;5.63;;;0.10;91.20;;;;;;6227494;28;20243;-63
2021/12/16 06:49:17;;;;;;;6.53;5.77;;;0.10;91.30;;;;;;6225625;28;20215;-64
2021/12/16 06:52:22;;;;;;;8.37;6.17;;;0.10;91.10;;;;;;6200162;28;20207;-63
2021/12/16 06:55:39;;;;;;;7.43;5.57;;;0.10;90.90;;;;;;6206213;28;20199;-63
2021/12/16 06:58:48;;;;;;;8.33;5.77;;;0.20;91.00;;;;;;6236154;28;20248;-63
2021/12/16 07:05:16;;;;;;;8.23;6.30;;;0.20;91.30;;;;;;6220191;28;20209;-63
2021/12/16 07:08:18;;;;;;;7.07;5.73;;;0.20;91.30;;;;;;6218892;28;20272;-63
2021/12/16 07:11:20;;;;;;;10.83;7.13;;;0.30;91.40;;;;;;6244065;28;20186;-63
2021/12/16 07:14:26;;;;;;;13.77;8.50;;;0.30;91.20;;;;;;6229936;28;20198;-63
2021/12/16 07:17:27;;;;;;;9.07;7.40;;;0.30;90.90;;;;;;6213411;28;20284;-63
2021/12/16 07:20:31;;;;;;;9.20;6.70;;;0.20;90.70;;;;;;6214192;28;20197;-63
2021/12/16 07:23:32;;;;;;;10.70;7.10;;;0.10;90.80;;;;;;6226203;28;20203;-63
2021/12/16 07:26:34;;;;;;;8.13;6.20;;;0.10;91.20;;;;;;6215298;28;20230;-63
2021/12/16 07:29:34;;;;;;;12.37;7.70;;;0.10;91.20;;;;;;6254232;28;20237;-63
2021/12/16 07:32:36;;;;;;;10.53;7.40;;;0.10;91.10;;;;;;6243203;28;20233;-63
2021/12/16 07:35:37;;;;;;;11.87;6.87;;;0.10;91.10;;;;;;6199588;28;20212;-63
2021/12/16 07:38:38;;;;;;;9.07;6.57;;;0.10;91.00;;;;;;6214788;28;20293;-63
2021/12/16 07:41:41;;;;;;;9.30;6.90;;;0.10;90.90;;;;;;6209506;28;20694;-63
2021/12/16 07:44:45;;;;;;;10.33;6.97;;;0.20;91.30;;;;;;6239374;28;20254;-64
2021/12/16 07:47:46;;;;;;;14.33;7.20;;;0.30;91.30;;;;;;6208399;28;20222;-62
2021/12/16 07:50:52;;;;;;;16.23;9.57;;;0.30;91.30;;;;;;6212544;28;20278;-61
2021/12/16 07:53:53;;;;;;;13.80;8.90;;;0.30;91.30;;;;;;6228713;28;20198;-63
2021/12/16 07:56:55;;;;;;;10.57;7.87;;;0.40;91.70;;;;;;6231782;28;20229;-63
2021/12/16 07:59:56;;;;;;;13.13;9.57;;;0.50;91.80;;;;;;6220263;28;20239;-62
2021/12/16 08:02:57;;;;;;;13.80;9.07;;;0.60;91.70;;;;;;6221899;28;20209;-62
2021/12/16 08:05:59;;;;;;;11.63;8.17;;;0.70;92.10;;;;;;6211615;28;20222;-64
2021/12/16 08:09:06;;;;;;;14.13;9.33;;;0.80;91.80;;;;;;6234749;28;20218;-62
2021/12/16 08:12:10;;;;;;;14.43;9.37;;;0.80;92.30;;;;;;6205140;28;20222;-63
2021/12/16 08:15:14;;;;;;;11.60;8.33;;;0.90;92.20;;;;;;6237261;28;20201;-63
2021/12/16 08:18:16;;;;;;;14.30;8.73;;;1.10;92.30;;;;;;6213839;28;20208;-62
2021/12/16 08:21:18;;;;;;;10.93;8.43;;;1.10;91.90;;;;;;6221827;28;20205;-63
2021/12/16 08:24:19;;;;;;;13.43;9.30;;;1.20;92.20;;;;;;6217586;28;20206;-63
2021/12/16 08:27:20;;;;;;;10.97;8.67;;;1.20;91.90;;;;;;6222529;28;20631;-63
2021/12/16 08:30:24;;;;;;;13.93;9.00;;;1.20;91.80;;;;;;6205125;28;20205;-62
2021/12/16 08:33:25;;;;;;;12.27;10.23;;;1.20;91.90;;;;;;6214592;28;20225;-62
2021/12/16 08:36:27;;;;;;;14.60;10.07;;;1.30;91.80;;;;;;6247507;28;20294;-63
2021/12/16 08:39:28;;;;;;;15.80;8.97;;;1.30;91.80;;;;;;6212439;28;20210;-62
2021/12/16 08:42:29;;;;;;;11.37;8.77;;;1.30;92.20;;;;;;6205508;28;20216;-62
2021/12/16 08:45:32;;;;;;;13.33;9.27;;;1.30;91.30;;;;;;6223659;28;20203;-63
2021/12/16 08:48:35;;;;;;;13.23;9.60;;;1.40;91.70;;;;;;6203931;28;20254;-62
2021/12/16 08:51:42;;;;;;;12.07;8.57;;;1.40;91.80;;;;;;6221623;28;20214;-64
2021/12/16 08:54:43;;;;;;;11.17;7.53;;;1.50;91.90;;;;;;6227436;28;20261;-62
2021/12/16 08:57:44;;;;;;;12.13;9.07;;;1.50;91.80;;;;;;6244343;28;20246;-62
2021/12/16 09:00:59;;;;;;;13.97;9.37;;;1.50;91.70;;;;;;6213129;28;20209;-63
2021/12/16 09:04:00;;;;;;;12.03;8.33;;;1.50;91.50;;;;;;6197850;28;20203;-62
2021/12/16 09:07:06;;;;;;;12.07;9.10;;;1.60;92.00;;;;;;6221152;28;20191;-63
2021/12/16 09:10:11;;;;;;;9.00;7.43;;;1.50;91.70;;;;;;6208399;28;20224;-62
2021/12/16 09:13:14;;;;;;;13.57;7.87;;;1.60;91.60;;;;;;6232354;28;20187;-63
2021/12/16 09:16:19;;;;;;;14.33;10.93;;;1.60;91.60;;;;;;6248953;28;20202;-62
2021/12/16 09:19:20;;;;;;;12.83;10.97;;;1.70;91.50;;;;;;6243840;28;20204;-62
2021/12/16 09:22:24;;;;;;;11.67;9.43;;;1.80;91.80;;;;;;6265555;28;20244;-62
2021/12/16 09:25:26;;;;;;;13.13;8.90;;;1.90;92.10;;;;;;6234016;28;20193;-64
2021/12/16 09:28:27;;;;;;;13.20;11.27;;;2.00;91.80;;;;;;6257563;28;20798;-62
2021/12/16 09:31:29;;;;;;;16.47;10.33;;;2.10;91.80;;;;;;6227818;28;20195;-65
2021/12/16 09:34:31;;;;;;;12.93;8.77;;;2.20;91.70;;;;;;6235337;28;20210;-63
2021/12/16 09:37:32;;;;;;;11.63;8.73;;;2.30;91.70;;;;;;6233219;28;20297;-63
2021/12/16 09:40:39;;;;;;;14.27;8.87;;;2.30;91.60;;;;;;6247613;28;20206;-63
2021/12/16 09:43:48;;;;;;;13.13;9.70;;;2.50;91.20;;;;;;6198962;28;20200;-63
2021/12/16 09:46:52;;;;;;;12.47;9.03;;;2.60;90.60;;;;;;6216604;28;20195;-63
2021/12/16 09:49:53;;;;;;;14.23;9.30;;;2.70;90.70;;;;;;6215403;28;20388;-63
2021/12/16 09:52:54;;;;;;;11.17;8.50;;;2.80;90.70;;;;;;6226455;28;20202;-63
2021/12/16 09:56:00;;;;;;;11.50;8.43;;;2.80;90.30;;;;;;6215197;28;20192;-63
2021/12/16 09:59:07;;;;;;;11.67;7.63;;;2.90;89.90;;;;;;6250287;28;20242;-63
2021/12/16 10:02:14;;;;;;;11.43;8.10;;;3.00;89.40;;;;;;6223041;28;20206;-63
2021/12/16 10:05:15;;;;;;;12.17;8.37;;;3.10;90.00;;;;;;6233630;28;20179;-63
2021/12/16 10:08:16;;;;;;;10.13;7.53;;;3.20;89.80;;;;;;6226186;28;20221;-63
2021/12/16 10:11:17;;;;;;;13.83;7.93;;;3.30;89.00;;;;;;6209836;28;20225;-63
2021/12/16 10:14:32;;;;;;;11.93;8.47;;;3.50;88.60;;;;;;6243560;28;20201;-63
2021/12/16 10:17:38;;;;;;;12.77;8.50;;;3.50;88.40;;;;;;6207459;28;20215;-63
2021/12/16 10:20:47;;;;;;;11.10;7.73;;;3.60;88.30;;;;;;6200014;28;20191;-63
2021/12/16 10:23:48;;;;;;;14.00;8.33;;;3.70;87.80;;;;;;6239138;28;20243;-63
2021/12/16 10:27:08;;;;;;;11.90;8.53;;;3.80;87.40;;;;;;6218193;28;20191;-63
2021/12/16 10:30:14;;;;;;;14.07;8.13;;;3.80;87.10;;;;;;6225327;28;20191;-62
2021/12/16 10:33:35;;;;;;;11.83;8.73;;;3.90;87.10;;;;;;6218971;28;20186;-62
2021/12/16 10:36:48;;;;;;;12.23;7.70;;;4.00;86.40;;;;;;6202984;28;20184;-62
2021/12/16 10:39:48;;;;;;;12.03;7.23;;;4.10;86.60;;;;;;6238637;28;20202;-62
2021/12/16 10:42:50;;;;;;;11.40;8.13;;;4.20;85.10;;;;;;6249584;28;20190;-62
2021/12/16 10:45:58;;;;;;;11.83;8.33;;;4.30;85.30;;;;;;6228345;28;20197;-62
2021/12/16 10:49:04;;;;;;;12.27;9.10;;;4.40;85.40;;;;;;6202753;28;20210;-62
2021/12/16 10:52:09;;;;;;;14.00;10.00;;;4.50;85.30;;;;;;6211077;28;20183;-62
2021/12/16 10:55:10;;;;;;;15.23;11.43;;;4.60;84.80;;;;;;6225502;28;20218;-62
2021/12/16 10:58:11;;;;;;;15.13;11.20;;;4.60;84.00;;;;;;6208671;28;20319;-62
2021/12/16 11:01:40;;;;;;;13.53;10.57;;;4.80;83.90;;;;;;6208877;28;20183;-62
2021/12/16 11:04:54;;;;;;;16.40;10.47;;;4.80;83.90;;;;;;6240193;28;20191;-62
2021/12/16 11:07:59;;;;;;;17.53;13.20;;;4.90;83.70;;;;;;6224098;28;20213;-62
2021/12/16 11:11:00;;;;;;;12.07;10.10;;;5.00;82.80;;;;;;6220220;28;20224;-62
2021/12/16 11:14:07;;;;;;;13.83;11.20;;;5.10;82.80;;;;;;6202858;28;20196;-62
2021/12/16 11:17:11;;;;;;;12.70;8.80;;;5.20;81.70;;;;;;6207296;28;20197;-62
2021/12/16 11:20:33;;;;;;;12.60;9.43;;;5.30;81.40;;;;;;6216798;28;20186;-62
2021/12/16 11:23:40;;;;;;;12.70;9.67;;;5.40;81.20;;;;;;6198925;28;20187;-62
2021/12/16 11:26:43;;;;;;;9.00;6.93;;;5.50;80.70;;;;;;6188503;28;20198;-62
2021/12/16 11:29:44;;;;;;;12.80;8.33;;;5.70;79.40;;;;;;6206262;28;20230;-62
2021/12/16 11:32:48;;;;;;;10.53;8.10;;;5.80;79.90;;;;;;6229677;28;20247;-62
2021/12/16 11:36:17;;;;;;;10.47;8.60;;;5.80;79.90;;;;;;6232818;28;20642;-62
2021/12/16 11:39:22;;;;;;;11.33;7.87;;;5.80;79.10;;;;;;6229597;28;20182;-62
2021/12/16 11:42:27;;;;;;;14.87;8.87;;;6.00;78.60;;;;;;6218602;28;20293;-62
2021/12/16 11:45:39;;;;;;;13.60;8.60;;;6.20;78.70;;;;;;6224535;28;20199;-62
2021/12/16 11:48:40;;;;;;;11.53;8.73;;;6.30;77.90;;;;;;6241836;28;20207;-62
2021/12/16 11:51:52;;;;;;;12.10;8.43;;;6.50;76.90;;;;;;6207633;28;20213;-62
2021/12/16 11:55:04;;;;;;;11.13;8.67;;;6.60;77.80;;;;;;6199996;28;20194;-62
2021/12/16 11:58:07;;;;;;;12.63;9.50;;;6.80;77.60;;;;;;6207358;28;20342;-62
2021/12/16 12:01:27;;;;;;;14.27;8.90;;;7.00;76.10;;;;;;6218674;28;20190;-62
2021/12/16 12:04:32;;;;;;;10.37;7.77;;;7.30;76.20;;;;;;6229453;28;20206;-62
2021/12/16 12:07:41;;;;;;;13.23;9.33;;;7.40;74.90;;;;;;6225976;28;20218;-62
2021/12/16 12:10:51;;;;;;;10.67;8.67;;;7.30;75.10;;;;;;6230284;28;20182;-61
2021/12/16 12:13:57;;;;;;;12.57;8.13;;;7.30;75.00;;;;;;6207088;28;20201;-61
2021/12/16 12:17:07;;;;;;;17.23;8.43;;;7.30;74.90;;;;;;6246219;28;20213;-61
2021/12/16 12:20:08;;;;;;;11.07;8.30;;;7.40;74.50;;;;;;6231908;28;20155;-62
2021/12/16 12:23:09;;;;;;;11.90;7.97;;;7.20;75.60;;;;;;6246431;28;20193;-61
2021/12/16 12:26:15;;;;;;;13.60;8.43;;;7.20;75.10;;;;;;6201393;28;20193;-62
2021/12/16 12:29:48;;;;;;;11.87;8.03;;;7.10;75.20;;;;;;6204239;28;20223;-62
2021/12/16 12:32:51;;;;;;;11.63;8.53;;;7.00;75.60;;;;;;6183434;28;20198;-62
2021/12/16 12:35:52;;;;;;;11.37;8.87;;;7.00;75.30;;;;;;6205705;28;20190;-62
2021/12/16 12:38:54;;;;;;;12.10;9.33;;;7.10;76.10;;;;;;6230272;28;20233;-60
2021/12/16 12:41:55;;;;;;;11.60;8.73;;;7.10;76.10;;;;;;6230757;28;20201;-62
2021/12/16 12:44:56;;;;;;;12.47;8.90;;;7.30;76.50;;;;;;6229540;28;20201;-62
2021/12/16 12:47:59;;;;;;;11.93;9.27;;;7.30;76.20;;;;;;6252586;28;20210;-60
2021/12/16 12:51:01;;;;;;;13.30;9.23;;;7.40;74.90;;;;;;6251790;28;20186;-61
2021/12/16 12:54:22;;;;;;;13.67;10.00;;;7.40;75.00;;;;;;6223716;28;20654;-60
2021/12/16 12:57:32;;;;;;;12.80;9.73;;;7.70;74.00;;;;;;6212378;28;20201;-61
2021/12/16 13:00:49;;;;;;;11.80;10.03;;;7.70;74.80;;;;;;6224572;28;20223;-62
2021/12/16 13:04:02;;;;;;;12.83;9.23;;;8.00;73.50;;;;;;6240769;28;20286;-62
2021/12/16 13:07:05;;;;;;;14.40;9.60;;;8.10;73.30;;;;;;6208347;28;20179;-59
2021/12/16 13:10:16;;;;;;;14.93;9.83;;;8.10;73.70;;;;;;6231878;28;20211;-60
2021/12/16 13:23:33;;;;;;;9.80;6.93;;;9.10;69.20;;;;;;6254857;28;20242;-62
2021/12/16 13:27:02;;;;;;;10.47;7.33;;;9.30;68.40;;;;;;6243277;28;20200;-62
2021/12/16 13:30:15;;;;;;;7.93;6.73;;;9.30;67.50;;;;;;6233674;28;20215;-60
2021/12/16 13:33:24;;;;;;;8.50;6.80;;;9.30;67.50;;;;;;6231857;28;20203;-61
2021/12/16 13:36:48;;;;;;;9.90;6.23;;;9.20;67.20;;;;;;6236240;28;20261;-61
2021/12/16 13:39:53;;;;;;;9.53;7.00;;;9.30;66.70;;;;;;6254857;28;20187;-61
2021/12/16 13:43:00;;;;;;;10.07;7.00;;;9.30;66.10;;;;;;6229384;28;20201;-61
2021/12/16 13:46:27;;;;;;;8.63;6.77;;;9.30;66.30;;;;;;6221158;28;20264;-61
2021/12/16 14:06:21;;;;;;;11.83;8.37;;;8.80;68.40;;;;;;6186820;28;20278;-61
2021/12/16 14:09:29;;;;;;;14.30;8.67;;;8.80;68.90;;;;;;6185311;28;20200;-62
2021/12/16 14:16:12;;;;;;;13.53;7.97;;;8.60;68.60;;;;;;6219615;28;20184;-62
2021/12/16 14:45:57;;;;;;;13.90;8.77;;;7.20;73.90;;;;;;6209967;28;20202;-62
2021/12/16 14:48:58;;;;;;;10.90;8.33;;;7.00;74.10;;;;;;6244981;28;20695;-61
2021/12/16 14:51:59;;;;;;;11.00;8.53;;;6.70;75.80;;;;;;6208924;28;20204;-62
2021/12/16 14:55:06;;;;;;;10.47;8.13;;;6.40;77.30;;;;;;6243934;28;20186;-62
2021/12/16 14:58:07;;;;;;;11.40;8.30;;;6.30;76.50;;;;;;6232719;28;20233;-61
2021/12/16 15:01:17;;;;;;;12.03;8.03;;;6.10;76.90;;;;;;6214568;28;20197;-61
2021/12/16 15:04:23;;;;;;;9.67;7.80;;;6.00;77.40;;;;;;6233820;28;20186;-62
2021/12/16 15:07:26;;;;;;;26.00;14.47;;;5.80;78.10;;;;;;6229409;28;20428;-62
2021/12/16 15:10:27;;;;;;;40.27;18.83;;;5.80;78.10;;;;;;6246262;28;20206;-62
2021/12/16 15:17:16;;;;;;;14.40;10.40;;;5.50;80.60;;;;;;6192273;28;20255;-62
2021/12/16 15:42:55;;;;;;;15.97;10.83;;;4.80;83.20;;;;;;6236047;28;20642;-62
2021/12/16 15:45:58;;;;;;;15.60;10.47;;;4.60;82.60;;;;;;6216832;28;20293;-62
2021/12/16 15:48:58;;;;;;;16.57;10.90;;;4.60;82.30;;;;;;6229437;28;20241;-61
2021/12/16 15:52:01;;;;;;;16.37;10.60;;;4.50;83.00;;;;;;6195744;28;20200;-62
2021/12/16 15:55:02;;;;;;;14.93;11.03;;;4.50;83.00;;;;;;6206902;28;20238;-62
2021/12/16 15:58:12;;;;;;;17.17;11.20;;;4.30;84.00;;;;;;6191861;28;20249;-62
2021/12/16 16:01:21;;;;;;;15.23;11.43;;;4.30;83.30;;;;;;6251147;28;20222;-62
2021/12/16 16:04:33;;;;;;;15.83;12.00;;;4.20;83.90;;;;;;6234907;28;20207;-62
2021/12/16 16:07:36;;;;;;;15.07;12.40;;;4.30;84.00;;;;;;6204642;28;20206;-62
2021/12/16 16:10:40;;;;;;;14.17;11.67;;;4.20;83.90;;;;;;6188963;28;20191;-63
2021/12/16 16:13:48;;;;;;;16.47;12.70;;;4.10;84.30;;;;;;6233416;28;20191;-63
2021/12/16 16:16:53;;;;;;;17.60;13.60;;;4.00;84.40;;;;;;6222871;28;20206;-61
2021/12/16 16:19:55;;;;;;;15.40;10.27;;;4.00;84.90;;;;;;6215873;28;20269;-62
2021/12/16 16:22:56;;;;;;;15.47;10.23;;;4.00;84.30;;;;;;6209335;28;20261;-61
2021/12/16 16:26:01;;;;;;;14.37;11.03;;;3.90;85.00;;;;;;6242676;28;20190;-62
2021/12/16 16:29:08;;;;;;;20.47;12.77;;;3.90;85.10;;;;;;6238357;28;20207;-63
2021/12/16 16:32:09;;;;;;;17.40;11.97;;;3.90;85.60;;;;;;6216169;28;20244;-62
2021/12/16 16:35:15;;;;;;;19.17;11.63;;;3.90;85.20;;;;;;6226773;28;20218;-60
2021/12/16 16:38:31;;;;;;;14.50;11.33;;;3.90;85.50;;;;;;6251835;28;20202;-61
2021/12/16 16:41:38;;;;;;;14.67;10.10;;;3.90;86.50;;;;;;6210869;28;20271;-62
2021/12/16 16:44:44;;;;;;;19.33;11.10;;;3.90;85.90;;;;;;6190993;28;20199;-62
2021/12/16 16:47:54;;;;;;;14.33;9.70;;;3.80;86.00;;;;;;6217664;28;20211;-62
2021/12/16 16:51:08;;;;;;;12.07;9.13;;;3.90;85.80;;;;;;6209220;28;20218;-65
2021/12/16 16:54:27;;;;;;;11.27;8.73;;;3.90;85.50;;;;;;6226453;28;20184;-62
2021/12/16 16:57:31;;;;;;;12.40;8.57;;;3.90;85.60;;;;;;6211455;28;20318;-63
2021/12/16 17:00:35;;;;;;;10.33;8.00;;;4.00;85.50;;;;;;6227995;28;20193;-62
2021/12/16 17:03:36;;;;;;;9.43;6.60;;;4.10;84.70;;;;;;6237868;28;20188;-62
2021/12/16 17:06:40;;;;;;;10.17;7.30;;;4.20;84.10;;;;;;6244151;28;20189;-63
2021/12/16 17:09:41;;;;;;;10.67;6.57;;;4.20;83.60;;;;;;6229485;28;20211;-61
2021/12/16 17:12:42;;;;;;;8.53;6.30;;;4.30;83.30;;;;;;6211735;28;20229;-62
2021/12/16 17:19:08;;;;;;;8.53;5.20;;;4.30;82.30;;;;;;6177749;28;20204;-63
2021/12/16 17:22:25;;;;;;;7.97;5.37;;;4.40;82.20;;;;;;6221366;28;20197;-63
2021/12/16 17:25:26;;;;;;;6.97;4.80;;;4.40;81.30;;;;;;6231458;28;20282;-62
2021/12/16 17:28:29;;;;;;;9.07;5.07;;;4.60;79.40;;;;;;6217978;28;20226;-63
2021/12/16 17:31:35;;;;;;;8.63;4.80;;;4.50;81.00;;;;;;6218932;28;20191;-64
2021/12/16 17:34:44;;;;;;;6.47;3.87;;;4.50;80.60;;;;;;6246221;28;20267;-63
2021/12/16 17:38:00;;;;;;;5.53;3.53;;;4.50;80.10;;;;;;6202968;28;20223;-62
2021/12/16 17:41:07;;;;;;;7.53;5.60;;;4.60;80.40;;;;;;6188348;28;20183;-62
2021/12/16 17:44:11;;;;;;;6.47;3.83;;;4.60;80.00;;;;;;6225954;28;20197;-62
2021/12/16 17:47:16;;;;;;;5.13;3.30;;;4.70;79.00;;;;;;6226744;28;20648;-62
2021/12/16 17:50:29;;;;;;;5.07;3.57;;;4.80;77.20;;;;;;6226763;28;20211;-62
2021/12/16 17:53:30;;;;;;;3.53;2.77;;;4.80;78.50;;;;;;6226768;28;20265;-63
2021/12/16 17:56:32;;;;;;;4.83;3.30;;;4.90;76.60;;;;;;6224036;28;20199;-63
2021/12/16 17:59:35;;;;;;;4.17;3.00;;;4.90;76.70;;;;;;6218832;28;20234;-62
2021/12/16 18:02:45;;;;;;;4.83;3.60;;;4.80;77.30;;;;;;6224671;28;20274;-62
2021/12/16 18:05:50;;;;;;;4.20;3.47;;;4.80;77.90;;;;;;6222173;28;20221;-62
2021/12/16 18:09:05;;;;;;;4.03;2.93;;;4.70;79.10;;;;;;6206073;28;20243;-61
2021/12/16 18:12:14;;;;;;;4.77;2.90;;;4.70;78.20;;;;;;6185578;28;20215;-63
2021/12/16 18:15:28;;;;;;;3.97;3.27;;;4.60;78.00;;;;;;6209484;28;20195;-62
2021/12/16 18:18:30;;;;;;;5.50;2.87;;;4.80;77.30;;;;;;6233443;28;20224;-62
2021/12/16 18:21:40;;;;;;;3.37;1.70;;;5.00;77.60;;;;;;6206809;28;20191;-63
2021/12/16 18:24:48;;;;;;;2.40;1.90;;;5.30;73.60;;;;;;6209312;28;20615;-63
2021/12/16 18:28:00;;;;;;;4.07;2.47;;;5.30;75.40;;;;;;6217795;28;20223;-62
2021/12/16 18:31:08;;;;;;;3.63;2.43;;;5.10;77.10;;;;;;6227263;28;20198;-63
2021/12/16 18:34:15;;;;;;;2.63;1.93;;;5.30;74.90;;;;;;6225000;28;20192;-63
2021/12/16 18:37:16;;;;;;;3.33;2.70;;;5.60;72.00;;;;;;6236320;28;20209;-63
2021/12/16 18:40:21;;;;;;;2.67;2.43;;;5.80;71.40;;;;;;6204643;28;20193;-62
2021/12/16 18:43:24;;;;;;;2.77;2.50;;;5.80;71.70;;;;;;6227388;28;20197;-62
2021/12/16 18:46:25;;;;;;;3.83;2.60;;;5.80;71.90;;;;;;6236558;28;20195;-63
2021/12/16 18:49:34;;;;;;;4.23;2.47;;;5.80;74.60;;;;;;6237328;28;20359;-63
2021/12/16 18:52:48;;;;;;;5.27;2.17;;;5.70;73.80;;;;;;6236873;28;20194;-63
2021/12/16 18:55:55;;;;;;;2.60;1.97;;;5.60;76.20;;;;;;6201034;28;20287;-63
2021/12/16 18:58:56;;;;;;;2.60;1.90;;;5.60;75.90;;;;;;6233148;28;20717;-63
2021/12/16 19:02:01;;;;;;;2.87;1.53;;;5.60;75.70;;;;;;6209939;28;20217;-61
2021/12/16 19:05:07;;;;;;;2.93;1.60;;;5.60;74.70;;;;;;6208319;28;20226;-62
2021/12/16 19:08:10;;;;;;;2.70;1.60;;;5.70;74.70;;;;;;6226658;28;20203;-62
2021/12/16 19:11:12;;;;;;;2.40;1.67;;;5.80;73.90;;;;;;6236158;28;20195;-63
2021/12/16 19:14:16;;;;;;;2.73;1.57;;;5.80;73.90;;;;;;6240535;28;20331;-63
2021/12/16 19:17:18;;;;;;;2.60;1.47;;;5.80;75.00;;;;;;6237953;28;20239;-63
2021/12/16 19:20:23;;;;;;;3.20;1.13;;;5.80;75.60;;;;;;6230779;28;20206;-63
2021/12/16 19:23:25;;;;;;;2.90;1.10;;;5.80;72.20;;;;;;6221908;28;20253;-63
2021/12/16 19:26:25;;;;;;;1.20;1.10;;;6.00;73.50;;;;;;6212526;28;20194;-63
2021/12/16 19:29:27;;;;;;;2.20;1.00;;;6.20;69.80;;;;;;6233030;28;20680;-63
2021/12/16 19:32:28;;;;;;;1.40;1.30;;;6.40;68.50;;;;;;6215862;28;20645;-63
2021/12/16 19:35:29;;;;;;;0.90;0.70;;;6.40;70.20;;;;;;6216414;28;20278;-63
2021/12/16 19:38:31;;;;;;;0.80;0.80;;;6.80;66.60;;;;;;6216332;28;20192;-63
2021/12/16 19:41:32;;;;;;;1.33;0.80;;;7.00;66.00;;;;;;6198826;28;20191;-63
2021/12/16 19:44:33;;;;;;;0.83;0.77;;;7.30;64.90;;;;;;6224927;28;20175;-63
2021/12/16 19:47:35;;;;;;;3.57;2.50;;;7.30;65.50;;;;;;6224197;28;20191;-64
2021/12/16 19:50:42;;;;;;;3.63;3.23;;;7.30;65.40;;;;;;6208147;28;20207;-64
2021/12/16 19:53:43;;;;;;;1.30;1.20;;;7.20;66.50;;;;;;6207614;28;20243;-64
2021/12/16 19:56:46;;;;;;;1.77;1.10;;;7.30;64.90;;;;;;6247921;28;20229;-64
2021/12/16 19:59:48;;;;;;;2.47;1.03;;;7.30;64.90;;;;;;6227464;28;20247;-64
2021/12/16 20:02:49;;;;;;;1.03;0.70;;;7.30;65.70;;;;;;6207947;28;20281;-64
2021/12/16 20:05:52;;;;;;;2.10;1.07;;;7.30;64.50;;;;;;6227979;28;20206;-64
2021/12/16 20:08:53;;;;;;;2.83;1.10;;;7.30;64.80;;;;;;6223776;28;20218;-65
2021/12/16 20:11:58;;;;;;;0.77;0.77;;;7.20;66.90;;;;;;6220280;28;20232;-65
2021/12/16 20:15:06;;;;;;;1.93;0.50;;;7.10;66.00;;;;;;6221888;28;20186;-65
2021/12/16 20:18:09;;;;;;;0.70;0.70;;;7.30;64.20;;;;;;6223184;28;20187;-65